sensor_id;sensor_type;location;lat;lon;timestamp;P1;durP1;ratioP1;P2;durP2;ratioP2
19560;SDS011;9927;47.792;10.616;2023-03-03T04:01:07;47.77;;;23.20;;
19560;SDS011;9927;47.792;10.616;2023-03-03T04:03:34;49.30;;;23.70;;
19560;SDS011;9927;47.792;10.616;2023-03-03T04:06:01;47.83;;;23.43;;
19560;SDS011;9927;47.792;10.616;2023-03-03T04:08:29;46.93;;;23.00;;
19560;SDS011;9927;47.792;10.616;2023-03-03T04:10:56;51.60;;;24.90;;
19560;SDS011;9927;47.792;10.616;2023-03-03T04:13:24;64.67;;;26.13;;
19560;SDS011;9927;47.792;10.616;2023-03-03T04:15:54;45.73;;;23.37;;
19560;SDS011;9927;47.792;10.616;2023-03-03T04:18:21;46.70;;;23.17;;
19560;SDS011;9927;47.792;10.616;2023-03-03T04:20:48;46.80;;;23.60;;
19560;SDS011;9927;47.792;10.616;2023-03-03T04:23:17;49.57;;;23.70;;
19560;SDS011;9927;47.792;10.616;2023-03-03T04:25:45;41.90;;;23.40;;
19560;SDS011;9927;47.792;10.616;2023-03-03T04:28:14;46.60;;;23.57;;
19560;SDS011;9927;47.792;10.616;2023-03-03T04:30:41;48.37;;;24.60;;
19560;SDS011;9927;47.792;10.616;2023-03-03T04:33:09;46.70;;;24.10;;
19560;SDS011;9927;47.792;10.616;2023-03-03T04:35:36;49.77;;;23.80;;
19560;SDS011;9927;47.792;10.616;2023-03-03T04:38:04;44.33;;;22.97;;
19560;SDS011;9927;47.792;10.616;2023-03-03T04:40:31;47.37;;;23.37;;
19560;SDS011;9927;47.792;10.616;2023-03-03T04:42:58;47.50;;;23.90;;
19560;SDS011;9927;47.792;10.616;2023-03-03T04:45:25;51.77;;;24.77;;
19560;SDS011;9927;47.792;10.616;2023-03-03T04:47:52;50.90;;;25.20;;
19560;SDS011;9927;47.792;10.616;2023-03-03T04:50:20;45.93;;;23.27;;
19560;SDS011;9927;47.792;10.616;2023-03-03T04:52:47;45.93;;;23.57;;
19560;SDS011;9927;47.792;10.616;2023-03-03T04:55:14;41.27;;;21.77;;
19560;SDS011;9927;47.792;10.616;2023-03-03T04:57:42;40.73;;;22.13;;
19560;SDS011;9927;47.792;10.616;2023-03-03T05:00:10;47.83;;;24.03;;
19560;SDS011;9927;47.792;10.616;2023-03-03T05:02:39;43.80;;;22.47;;
19560;SDS011;9927;47.792;10.616;2023-03-03T05:05:07;42.23;;;21.87;;
19560;SDS011;9927;47.792;10.616;2023-03-03T05:07:39;47.23;;;23.90;;
19560;SDS011;9927;47.792;10.616;2023-03-03T05:10:06;48.13;;;25.30;;
19560;SDS011;9927;47.792;10.616;2023-03-03T05:12:34;47.50;;;23.87;;
19560;SDS011;9927;47.792;10.616;2023-03-03T05:15:01;49.10;;;23.77;;
19560;SDS011;9927;47.792;10.616;2023-03-03T05:17:29;48.70;;;24.07;;
19560;SDS011;9927;47.792;10.616;2023-03-03T05:19:56;50.20;;;25.30;;
19560;SDS011;9927;47.792;10.616;2023-03-03T05:22:23;50.80;;;25.10;;
19560;SDS011;9927;47.792;10.616;2023-03-03T05:24:51;47.80;;;24.00;;
19560;SDS011;9927;47.792;10.616;2023-03-03T05:27:19;47.50;;;24.10;;
19560;SDS011;9927;47.792;10.616;2023-03-03T05:29:46;44.77;;;23.30;;
19560;SDS011;9927;47.792;10.616;2023-03-03T05:32:14;49.33;;;24.97;;
19560;SDS011;9927;47.792;10.616;2023-03-03T05:34:41;46.17;;;24.70;;
19560;SDS011;9927;47.792;10.616;2023-03-03T05:37:08;46.80;;;23.90;;
19560;SDS011;9927;47.792;10.616;2023-03-03T05:39:36;45.13;;;22.67;;
19560;SDS011;9927;47.792;10.616;2023-03-03T05:42:03;40.00;;;22.17;;
19560;SDS011;9927;47.792;10.616;2023-03-03T05:44:30;45.70;;;22.77;;
19560;SDS011;9927;47.792;10.616;2023-03-03T05:46:57;51.37;;;25.27;;
19560;SDS011;9927;47.792;10.616;2023-03-03T05:49:25;45.60;;;23.07;;
19560;SDS011;9927;47.792;10.616;2023-03-03T05:51:52;46.23;;;24.63;;
19560;SDS011;9927;47.792;10.616;2023-03-03T05:54:19;49.17;;;24.13;;
19560;SDS011;9927;47.792;10.616;2023-03-03T05:56:47;44.97;;;23.67;;
19560;SDS011;9927;47.792;10.616;2023-03-03T05:59:14;49.83;;;24.87;;
19560;SDS011;9927;47.792;10.616;2023-03-03T06:01:41;50.60;;;25.47;;
19560;SDS011;9927;47.792;10.616;2023-03-03T06:04:08;42.03;;;23.30;;
19560;SDS011;9927;47.792;10.616;2023-03-03T06:06:35;46.37;;;23.70;;
19560;SDS011;9927;47.792;10.616;2023-03-03T06:09:03;50.13;;;25.25;;
19560;SDS011;9927;47.792;10.616;2023-03-03T06:11:30;47.07;;;23.60;;
19560;SDS011;9927;47.792;10.616;2023-03-03T06:13:58;42.20;;;22.60;;
19560;SDS011;9927;47.792;10.616;2023-03-03T06:16:25;47.23;;;24.27;;
19560;SDS011;9927;47.792;10.616;2023-03-03T06:18:52;46.37;;;23.60;;
19560;SDS011;9927;47.792;10.616;2023-03-03T06:21:20;48.33;;;24.47;;
19560;SDS011;9927;47.792;10.616;2023-03-03T06:23:47;46.07;;;23.17;;
19560;SDS011;9927;47.792;10.616;2023-03-03T06:26:14;47.30;;;24.63;;
19560;SDS011;9927;47.792;10.616;2023-03-03T06:28:41;47.47;;;24.03;;
19560;SDS011;9927;47.792;10.616;2023-03-03T06:31:08;46.43;;;24.63;;
19560;SDS011;9927;47.792;10.616;2023-03-03T06:33:36;52.40;;;24.83;;
19560;SDS011;9927;47.792;10.616;2023-03-03T06:36:04;53.10;;;26.73;;
19560;SDS011;9927;47.792;10.616;2023-03-03T06:38:31;51.83;;;24.83;;
19560;SDS011;9927;47.792;10.616;2023-03-03T06:40:58;53.20;;;26.13;;
19560;SDS011;9927;47.792;10.616;2023-03-03T06:43:27;57.47;;;26.87;;
19560;SDS011;9927;47.792;10.616;2023-03-03T06:45:54;49.93;;;25.10;;
19560;SDS011;9927;47.792;10.616;2023-03-03T06:48:22;52.63;;;26.80;;
19560;SDS011;9927;47.792;10.616;2023-03-03T06:50:49;51.57;;;26.53;;
19560;SDS011;9927;47.792;10.616;2023-03-03T06:53:17;47.10;;;24.13;;
19560;SDS011;9927;47.792;10.616;2023-03-03T06:55:45;55.20;;;27.23;;
19560;SDS011;9927;47.792;10.616;2023-03-03T06:58:16;53.70;;;26.70;;
19560;SDS011;9927;47.792;10.616;2023-03-03T07:00:56;54.77;;;26.97;;
19560;SDS011;9927;47.792;10.616;2023-03-03T07:03:25;51.40;;;26.27;;
19560;SDS011;9927;47.792;10.616;2023-03-03T07:06:01;52.33;;;27.93;;
19560;SDS011;9927;47.792;10.616;2023-03-03T07:08:42;58.33;;;27.73;;
19560;SDS011;9927;47.792;10.616;2023-03-03T07:11:10;49.63;;;26.80;;
19560;SDS011;9927;47.792;10.616;2023-03-03T07:13:43;57.90;;;28.63;;
19560;SDS011;9927;47.792;10.616;2023-03-03T07:16:13;54.47;;;28.17;;
19560;SDS011;9927;47.792;10.616;2023-03-03T07:18:53;65.43;;;31.40;;
19560;SDS011;9927;47.792;10.616;2023-03-03T07:21:27;57.67;;;28.10;;
19560;SDS011;9927;47.792;10.616;2023-03-03T07:23:57;58.30;;;27.33;;
19560;SDS011;9927;47.792;10.616;2023-03-03T07:26:29;62.90;;;30.07;;
19560;SDS011;9927;47.792;10.616;2023-03-03T07:29:21;55.27;;;26.27;;
19560;SDS011;9927;47.792;10.616;2023-03-03T07:31:46;56.73;;;28.03;;
19560;SDS011;9927;47.792;10.616;2023-03-03T07:34:22;55.13;;;27.47;;
19560;SDS011;9927;47.792;10.616;2023-03-03T07:37:03;58.30;;;28.07;;
19560;SDS011;9927;47.792;10.616;2023-03-03T07:39:42;53.93;;;27.90;;
19560;SDS011;9927;47.792;10.616;2023-03-03T07:42:17;58.23;;;28.20;;
19560;SDS011;9927;47.792;10.616;2023-03-03T07:45:21;60.73;;;28.93;;
19560;SDS011;9927;47.792;10.616;2023-03-03T07:48:08;58.60;;;29.67;;
19560;SDS011;9927;47.792;10.616;2023-03-03T07:50:52;59.23;;;29.93;;
19560;SDS011;9927;47.792;10.616;2023-03-03T07:53:21;60.77;;;30.67;;
19560;SDS011;9927;47.792;10.616;2023-03-03T07:55:55;64.33;;;29.63;;
19560;SDS011;9927;47.792;10.616;2023-03-03T07:58:35;59.83;;;30.10;;
19560;SDS011;9927;47.792;10.616;2023-03-03T08:04:00;71.67;;;33.00;;
19560;SDS011;9927;47.792;10.616;2023-03-03T08:06:46;57.40;;;29.37;;
19560;SDS011;9927;47.792;10.616;2023-03-03T08:14:35;59.53;;;29.00;;
19560;SDS011;9927;47.792;10.616;2023-03-03T08:17:13;48.67;;;26.60;;
19560;SDS011;9927;47.792;10.616;2023-03-03T08:19:46;54.47;;;27.17;;
19560;SDS011;9927;47.792;10.616;2023-03-03T08:22:15;55.80;;;28.63;;
19560;SDS011;9927;47.792;10.616;2023-03-03T08:24:45;52.70;;;27.37;;
19560;SDS011;9927;47.792;10.616;2023-03-03T08:27:12;53.43;;;28.50;;
19560;SDS011;9927;47.792;10.616;2023-03-03T08:29:39;58.67;;;28.97;;
19560;SDS011;9927;47.792;10.616;2023-03-03T08:32:06;60.00;;;29.47;;
19560;SDS011;9927;47.792;10.616;2023-03-03T08:34:34;55.17;;;28.93;;
19560;SDS011;9927;47.792;10.616;2023-03-03T08:37:01;55.80;;;28.87;;
19560;SDS011;9927;47.792;10.616;2023-03-03T08:39:28;52.83;;;27.93;;
19560;SDS011;9927;47.792;10.616;2023-03-03T08:41:55;57.63;;;29.10;;
19560;SDS011;9927;47.792;10.616;2023-03-03T08:44:23;54.17;;;27.43;;
19560;SDS011;9927;47.792;10.616;2023-03-03T08:46:50;50.80;;;27.30;;
19560;SDS011;9927;47.792;10.616;2023-03-03T08:49:17;54.40;;;28.13;;
19560;SDS011;9927;47.792;10.616;2023-03-03T08:51:45;55.27;;;27.27;;
19560;SDS011;9927;47.792;10.616;2023-03-03T08:54:12;53.37;;;27.80;;
19560;SDS011;9927;47.792;10.616;2023-03-03T08:56:40;53.10;;;27.93;;
19560;SDS011;9927;47.792;10.616;2023-03-03T08:59:07;47.37;;;25.87;;
19560;SDS011;9927;47.792;10.616;2023-03-03T09:01:34;49.47;;;27.57;;
19560;SDS011;9927;47.792;10.616;2023-03-03T09:04:01;52.97;;;27.90;;
19560;SDS011;9927;47.792;10.616;2023-03-03T09:06:29;50.13;;;27.63;;
19560;SDS011;9927;47.792;10.616;2023-03-03T09:08:56;58.80;;;30.30;;
19560;SDS011;9927;47.792;10.616;2023-03-03T09:11:24;56.50;;;28.10;;
19560;SDS011;9927;47.792;10.616;2023-03-03T09:13:57;53.23;;;28.57;;
19560;SDS011;9927;47.792;10.616;2023-03-03T09:16:34;55.60;;;28.67;;
19560;SDS011;9927;47.792;10.616;2023-03-03T09:19:21;52.07;;;27.50;;
19560;SDS011;9927;47.792;10.616;2023-03-03T09:22:10;60.37;;;30.97;;
19560;SDS011;9927;47.792;10.616;2023-03-03T09:24:46;56.73;;;28.80;;
19560;SDS011;9927;47.792;10.616;2023-03-03T09:27:17;53.63;;;29.17;;
19560;SDS011;9927;47.792;10.616;2023-03-03T09:29:49;59.80;;;29.00;;
19560;SDS011;9927;47.792;10.616;2023-03-03T09:32:30;55.00;;;27.67;;
19560;SDS011;9927;47.792;10.616;2023-03-03T09:35:46;54.73;;;28.77;;
19560;SDS011;9927;47.792;10.616;2023-03-03T09:38:10;53.63;;;27.47;;
19560;SDS011;9927;47.792;10.616;2023-03-03T09:43:40;59.97;;;29.37;;
19560;SDS011;9927;47.792;10.616;2023-03-03T09:49:01;56.63;;;29.57;;
19560;SDS011;9927;47.792;10.616;2023-03-03T09:52:00;59.07;;;30.37;;
19560;SDS011;9927;47.792;10.616;2023-03-03T10:07:32;59.00;;;34.10;;
19560;SDS011;9927;47.792;10.616;2023-03-03T10:25:01;55.37;;;28.97;;
19560;SDS011;9927;47.792;10.616;2023-03-03T10:27:38;56.53;;;28.47;;
19560;SDS011;9927;47.792;10.616;2023-03-03T10:40:49;49.67;;;28.10;;
19560;SDS011;9927;47.792;10.616;2023-03-03T10:43:49;55.80;;;28.07;;
19560;SDS011;9927;47.792;10.616;2023-03-03T10:46:24;49.33;;;26.47;;
19560;SDS011;9927;47.792;10.616;2023-03-03T10:51:58;51.73;;;27.67;;
19560;SDS011;9927;47.792;10.616;2023-03-03T10:54:54;49.93;;;27.30;;
19560;SDS011;9927;47.792;10.616;2023-03-03T11:00:56;52.13;;;28.83;;
19560;SDS011;9927;47.792;10.616;2023-03-03T11:08:56;56.20;;;29.70;;
19560;SDS011;9927;47.792;10.616;2023-03-03T11:11:39;52.63;;;28.47;;
19560;SDS011;9927;47.792;10.616;2023-03-03T11:17:12;57.63;;;30.47;;
19560;SDS011;9927;47.792;10.616;2023-03-03T11:22:41;46.13;;;27.17;;
19560;SDS011;9927;47.792;10.616;2023-03-03T11:31:17;52.70;;;28.10;;
19560;SDS011;9927;47.792;10.616;2023-03-03T11:36:51;57.60;;;29.53;;
19560;SDS011;9927;47.792;10.616;2023-03-03T11:39:27;51.57;;;28.03;;
19560;SDS011;9927;47.792;10.616;2023-03-03T11:42:08;50.70;;;26.83;;
19560;SDS011;9927;47.792;10.616;2023-03-03T11:44:59;57.70;;;29.73;;
19560;SDS011;9927;47.792;10.616;2023-03-03T11:47:50;54.20;;;28.33;;
19560;SDS011;9927;47.792;10.616;2023-03-03T11:50:30;54.83;;;28.60;;
19560;SDS011;9927;47.792;10.616;2023-03-03T11:55:44;52.60;;;28.20;;
19560;SDS011;9927;47.792;10.616;2023-03-03T12:03:48;52.37;;;29.67;;
19560;SDS011;9927;47.792;10.616;2023-03-03T12:06:23;52.67;;;30.20;;
19560;SDS011;9927;47.792;10.616;2023-03-03T12:09:48;52.40;;;28.80;;
19560;SDS011;9927;47.792;10.616;2023-03-03T12:12:41;56.72;;;29.40;;
19560;SDS011;9927;47.792;10.616;2023-03-03T12:15:18;54.97;;;31.23;;
19560;SDS011;9927;47.792;10.616;2023-03-03T12:20:27;59.13;;;31.60;;
19560;SDS011;9927;47.792;10.616;2023-03-03T12:25:56;49.73;;;28.77;;
19560;SDS011;9927;47.792;10.616;2023-03-03T12:28:49;57.13;;;31.37;;
19560;SDS011;9927;47.792;10.616;2023-03-03T12:31:27;67.83;;;36.27;;
19560;SDS011;9927;47.792;10.616;2023-03-03T12:45:22;66.97;;;32.33;;
19560;SDS011;9927;47.792;10.616;2023-03-03T12:48:07;59.13;;;32.50;;
19560;SDS011;9927;47.792;10.616;2023-03-03T12:59:41;65.83;;;33.73;;
19560;SDS011;9927;47.792;10.616;2023-03-03T13:05:15;64.30;;;35.27;;
19560;SDS011;9927;47.792;10.616;2023-03-03T13:07:55;64.10;;;34.37;;
19560;SDS011;9927;47.792;10.616;2023-03-03T13:10:45;62.53;;;34.20;;
19560;SDS011;9927;47.792;10.616;2023-03-03T13:13:20;66.47;;;34.37;;
19560;SDS011;9927;47.792;10.616;2023-03-03T13:21:31;68.63;;;35.17;;
19560;SDS011;9927;47.792;10.616;2023-03-03T13:27:22;66.40;;;33.37;;
19560;SDS011;9927;47.792;10.616;2023-03-03T13:29:59;64.07;;;32.97;;
19560;SDS011;9927;47.792;10.616;2023-03-03T13:32:58;66.10;;;35.07;;
19560;SDS011;9927;47.792;10.616;2023-03-03T13:38:29;62.70;;;33.53;;
19560;SDS011;9927;47.792;10.616;2023-03-03T13:41:46;77.17;;;37.87;;
19560;SDS011;9927;47.792;10.616;2023-03-03T13:43:53;74.37;;;37.83;;
19560;SDS011;9927;47.792;10.616;2023-03-03T13:46:27;74.80;;;36.50;;
19560;SDS011;9927;47.792;10.616;2023-03-03T13:52:24;80.43;;;40.40;;
19560;SDS011;9927;47.792;10.616;2023-03-03T14:00:15;72.80;;;37.37;;
19560;SDS011;9927;47.792;10.616;2023-03-03T14:05:56;78.07;;;37.93;;
19560;SDS011;9927;47.792;10.616;2023-03-03T14:11:32;79.07;;;38.23;;
19560;SDS011;9927;47.792;10.616;2023-03-03T14:16:51;72.33;;;37.20;;
19560;SDS011;9927;47.792;10.616;2023-03-03T14:22:05;83.97;;;41.13;;
19560;SDS011;9927;47.792;10.616;2023-03-03T14:25:02;92.70;;;44.63;;
19560;SDS011;9927;47.792;10.616;2023-03-03T14:30:23;75.77;;;38.73;;
19560;SDS011;9927;47.792;10.616;2023-03-03T14:35:29;79.67;;;40.97;;
19560;SDS011;9927;47.792;10.616;2023-03-03T14:38:00;82.83;;;42.23;;
19560;SDS011;9927;47.792;10.616;2023-03-03T14:40:31;81.87;;;40.23;;
19560;SDS011;9927;47.792;10.616;2023-03-03T14:43:00;70.97;;;38.07;;
19560;SDS011;9927;47.792;10.616;2023-03-03T14:45:34;80.23;;;39.03;;
19560;SDS011;9927;47.792;10.616;2023-03-03T14:48:15;72.87;;;36.63;;
19560;SDS011;9927;47.792;10.616;2023-03-03T14:50:48;75.73;;;38.23;;
19560;SDS011;9927;47.792;10.616;2023-03-03T14:53:32;78.73;;;40.60;;
19560;SDS011;9927;47.792;10.616;2023-03-03T14:56:55;75.87;;;38.67;;
19560;SDS011;9927;47.792;10.616;2023-03-03T14:59:19;72.67;;;37.53;;
19560;SDS011;9927;47.792;10.616;2023-03-03T15:02:36;72.00;;;37.37;;
19560;SDS011;9927;47.792;10.616;2023-03-03T15:04:44;74.27;;;37.83;;
19560;SDS011;9927;47.792;10.616;2023-03-03T15:10:00;74.30;;;37.53;;
19560;SDS011;9927;47.792;10.616;2023-03-03T15:17:37;68.17;;;36.73;;
19560;SDS011;9927;47.792;10.616;2023-03-03T15:26:02;83.30;;;40.60;;
19560;SDS011;9927;47.792;10.616;2023-03-03T15:31:33;81.73;;;39.17;;
19560;SDS011;9927;47.792;10.616;2023-03-03T15:34:45;80.13;;;37.43;;
19560;SDS011;9927;47.792;10.616;2023-03-03T15:40:26;80.10;;;41.73;;
19560;SDS011;9927;47.792;10.616;2023-03-03T15:54:38;74.20;;;38.17;;
19560;SDS011;9927;47.792;10.616;2023-03-03T15:57:15;72.33;;;37.40;;
19560;SDS011;9927;47.792;10.616;2023-03-03T16:00:02;75.00;;;38.37;;
19560;SDS011;9927;47.792;10.616;2023-03-03T16:02:51;72.93;;;38.33;;
19560;SDS011;9927;47.792;10.616;2023-03-03T16:05:32;73.07;;;37.40;;
19560;SDS011;9927;47.792;10.616;2023-03-03T16:08:08;73.37;;;37.47;;
19560;SDS011;9927;47.792;10.616;2023-03-03T16:16:30;78.10;;;38.20;;
19560;SDS011;9927;47.792;10.616;2023-03-03T16:19:06;76.47;;;39.30;;
19560;SDS011;9927;47.792;10.616;2023-03-03T16:22:01;72.37;;;37.57;;
19560;SDS011;9927;47.792;10.616;2023-03-03T16:24:44;83.77;;;41.27;;
19560;SDS011;9927;47.792;10.616;2023-03-03T16:27:33;74.37;;;38.77;;
19560;SDS011;9927;47.792;10.616;2023-03-03T16:38:40;71.60;;;36.83;;
19560;SDS011;9927;47.792;10.616;2023-03-03T16:50:14;82.60;;;41.20;;
19560;SDS011;9927;47.792;10.616;2023-03-03T16:53:00;77.50;;;38.40;;
19560;SDS011;9927;47.792;10.616;2023-03-03T17:01:07;71.77;;;36.57;;
19560;SDS011;9927;47.792;10.616;2023-03-03T17:04:00;75.80;;;38.20;;
19560;SDS011;9927;47.792;10.616;2023-03-03T17:06:53;84.23;;;40.00;;
19560;SDS011;9927;47.792;10.616;2023-03-03T17:15:10;80.87;;;40.13;;
19560;SDS011;9927;47.792;10.616;2023-03-03T17:20:58;92.10;;;43.10;;
19560;SDS011;9927;47.792;10.616;2023-03-03T17:29:14;77.37;;;39.20;;
19560;SDS011;9927;47.792;10.616;2023-03-03T17:32:07;72.27;;;36.70;;
19560;SDS011;9927;47.792;10.616;2023-03-03T17:37:30;90.33;;;43.40;;
19560;SDS011;9927;47.792;10.616;2023-03-03T17:43:00;82.07;;;39.83;;
19560;SDS011;9927;47.792;10.616;2023-03-03T17:45:30;84.07;;;43.53;;
19560;SDS011;9927;47.792;10.616;2023-03-03T17:56:20;95.20;;;46.43;;
19560;SDS011;9927;47.792;10.616;2023-03-03T18:20:59;77.40;;;34.97;;
19560;SDS011;9927;47.792;10.616;2023-03-03T18:23:30;71.97;;;33.23;;
19560;SDS011;9927;47.792;10.616;2023-03-03T18:29:24;64.40;;;34.20;;
19560;SDS011;9927;47.792;10.616;2023-03-03T18:37:10;76.97;;;36.27;;
19560;SDS011;9927;47.792;10.616;2023-03-03T18:42:34;72.57;;;35.33;;
19560;SDS011;9927;47.792;10.616;2023-03-03T18:45:49;74.53;;;36.23;;
19560;SDS011;9927;47.792;10.616;2023-03-03T18:48:09;71.03;;;32.80;;
19560;SDS011;9927;47.792;10.616;2023-03-03T18:55:51;71.70;;;34.90;;
19560;SDS011;9927;47.792;10.616;2023-03-03T19:01:10;82.53;;;40.27;;
19560;SDS011;9927;47.792;10.616;2023-03-03T19:04:02;81.27;;;39.90;;
19560;SDS011;9927;47.792;10.616;2023-03-03T19:09:18;81.87;;;40.77;;
19560;SDS011;9927;47.792;10.616;2023-03-03T19:12:09;81.37;;;38.50;;
19560;SDS011;9927;47.792;10.616;2023-03-03T19:14:39;74.90;;;37.80;;
19560;SDS011;9927;47.792;10.616;2023-03-03T19:20:08;84.57;;;40.17;;
19560;SDS011;9927;47.792;10.616;2023-03-03T19:22:31;77.90;;;39.50;;
19560;SDS011;9927;47.792;10.616;2023-03-03T19:25:15;87.80;;;42.50;;
19560;SDS011;9927;47.792;10.616;2023-03-03T19:30:45;74.67;;;38.40;;
19560;SDS011;9927;47.792;10.616;2023-03-03T19:42:52;90.10;;;42.83;;
19560;SDS011;9927;47.792;10.616;2023-03-03T19:54:16;91.83;;;42.93;;
19560;SDS011;9927;47.792;10.616;2023-03-03T19:57:00;85.20;;;40.10;;
19560;SDS011;9927;47.792;10.616;2023-03-03T20:05:18;90.07;;;44.63;;
19560;SDS011;9927;47.792;10.616;2023-03-03T20:16:17;93.83;;;45.57;;
19560;SDS011;9927;47.792;10.616;2023-03-03T20:24:31;83.77;;;41.40;;
19560;SDS011;9927;47.792;10.616;2023-03-03T20:27:12;80.77;;;40.13;;
19560;SDS011;9927;47.792;10.616;2023-03-03T20:33:02;80.20;;;40.37;;
19560;SDS011;9927;47.792;10.616;2023-03-03T20:38:42;76.73;;;39.03;;
19560;SDS011;9927;47.792;10.616;2023-03-03T21:01:11;68.57;;;33.87;;
19560;SDS011;9927;47.792;10.616;2023-03-03T21:03:42;87.43;;;37.93;;
19560;SDS011;9927;47.792;10.616;2023-03-03T21:06:12;76.83;;;36.50;;
19560;SDS011;9927;47.792;10.616;2023-03-03T21:11:22;110.70;;;39.70;;
19560;SDS011;9927;47.792;10.616;2023-03-03T21:13:59;88.70;;;38.57;;
19560;SDS011;9927;47.792;10.616;2023-03-03T21:16:48;116.17;;;38.20;;
19560;SDS011;9927;47.792;10.616;2023-03-03T21:19:33;73.23;;;36.83;;
19560;SDS011;9927;47.792;10.616;2023-03-03T21:22:04;100.87;;;40.63;;
19560;SDS011;9927;47.792;10.616;2023-03-03T21:27:34;86.50;;;41.13;;
19560;SDS011;9927;47.792;10.616;2023-03-03T21:30:06;99.70;;;44.40;;
19560;SDS011;9927;47.792;10.616;2023-03-03T21:32:42;162.33;;;49.27;;
19560;SDS011;9927;47.792;10.616;2023-03-03T21:35:17;151.63;;;47.00;;
19560;SDS011;9927;47.792;10.616;2023-03-03T21:37:50;146.93;;;44.77;;
19560;SDS011;9927;47.792;10.616;2023-03-03T21:40:20;164.33;;;47.07;;
19560;SDS011;9927;47.792;10.616;2023-03-03T21:42:59;117.13;;;42.80;;
19560;SDS011;9927;47.792;10.616;2023-03-03T21:45:26;201.73;;;48.67;;
19560;SDS011;9927;47.792;10.616;2023-03-03T21:47:55;140.87;;;43.13;;
19560;SDS011;9927;47.792;10.616;2023-03-03T21:50:26;163.93;;;44.00;;
19560;SDS011;9927;47.792;10.616;2023-03-03T21:52:57;86.83;;;39.37;;
19560;SDS011;9927;47.792;10.616;2023-03-03T21:55:24;324.73;;;57.47;;
19560;SDS011;9927;47.792;10.616;2023-03-03T21:57:52;151.43;;;46.83;;
